LTCK/MSR METAR and TAF weather

Enter ICAO airport designator
Station Type Date Time Source
LTCK METAR 2019/02/21 12:50 UTC NOAA

LTCK 211250Z VRB01KT 6000 FEW010 BKN035 M07/M10 Q1023


Station Type Date Time Source
LTCK Decoded METAR 2019/02/21 12:50 UTC NOAA

Mus Tur-Afb , Turkey (LTCK) 38-45N 041-40E
Feb 21, 2019 - 07:50 AM EST / 2019.02.21 1250 UTC
Wind: Variable at 1 MPH (1 KT):0
Visibility: 3 mile(s):0
Sky conditions: mostly cloudy
Temperature: 19 F (-7 C)
Dew Point: 14 F (-10 C)
Relative Humidity: 79%
Pressure (altimeter): 30.21 in. Hg (1023 hPa)
ob: LTCK 211250Z VRB01KT 6000 FEW010 BKN035 M07/M10 Q1023
cycle: 13

Station Type Date Time Source
LTCK TAF UTC NOAA

Error!


Example: see airport list